createdAt,value
2022-10-25T00:01:31.562Z,1.30
2022-10-25T00:04:00.327Z,1.17
2022-10-25T00:06:28.943Z,1.58
2022-10-25T00:08:57.560Z,1.20
2022-10-25T00:11:28.629Z,1.60
2022-10-25T00:14:01.463Z,1.50
2022-10-25T00:16:32.753Z,1.13
2022-10-25T00:19:01.320Z,1.73
2022-10-25T00:21:29.930Z,1.60
2022-10-25T00:23:58.394Z,1.20
2022-10-25T00:26:26.967Z,1.30
2022-10-25T00:28:56.249Z,1.40
2022-10-25T00:31:26.360Z,1.08
2022-10-25T00:33:54.824Z,1.40
2022-10-25T00:36:25.715Z,1.08
2022-10-25T00:38:54.958Z,1.52
2022-10-25T00:41:25.874Z,1.20
2022-10-25T00:43:56.498Z,1.23
2022-10-25T00:46:30.225Z,1.38
2022-10-25T00:49:02.748Z,1.23
2022-10-25T00:51:37.717Z,1.20
2022-10-25T00:54:09.038Z,1.10
2022-10-25T00:56:41.026Z,1.35
2022-10-25T00:59:12.134Z,1.40
2022-10-25T01:01:43.311Z,1.25
2022-10-25T01:04:16.736Z,0.93
2022-10-25T01:06:49.910Z,1.40
2022-10-25T01:09:21.116Z,1.15
2022-10-25T01:11:49.559Z,1.10
2022-10-25T01:14:18.638Z,1.00
2022-10-25T01:16:55.399Z,1.27
2022-10-25T01:19:46.823Z,1.38
2022-10-25T01:22:19.029Z,1.60
2022-10-25T01:25:09.977Z,1.42
2022-10-25T01:30:27.838Z,1.30
2022-10-25T01:33:10.630Z,1.13
2022-10-25T01:35:50.261Z,1.23
2022-10-25T01:38:37.450Z,1.25
2022-10-25T01:41:16.912Z,1.42
2022-10-25T01:43:55.911Z,1.17
2022-10-25T01:46:30.158Z,1.00
2022-10-25T01:49:05.846Z,1.13
2022-10-25T01:51:38.414Z,1.20
2022-10-25T01:54:19.930Z,1.30
2022-10-25T01:56:59.194Z,1.23
2022-10-25T01:59:44.179Z,1.20
2022-10-25T02:02:18.650Z,1.20
2022-10-25T02:05:00.550Z,1.27
2022-10-25T02:07:35.333Z,1.45
2022-10-25T02:10:10.783Z,1.00
2022-10-25T02:12:47.914Z,1.30
2022-10-25T02:15:23.187Z,1.00
2022-10-25T02:17:58.080Z,1.40
2022-10-25T02:20:31.198Z,1.55
2022-10-25T02:23:02.185Z,1.25
2022-10-25T02:25:33.459Z,1.33
2022-10-25T02:28:04.926Z,1.17
2022-10-25T02:30:36.031Z,1.20
2022-10-25T02:33:04.680Z,1.25
2022-10-25T02:35:34.765Z,1.25
2022-10-25T02:38:03.724Z,1.20
2022-10-25T02:40:32.509Z,1.13
2022-10-25T02:43:01.187Z,0.98
2022-10-25T02:45:29.718Z,1.02
2022-10-25T02:47:58.255Z,1.02
2022-10-25T02:50:26.756Z,0.95
2022-10-25T02:52:56.660Z,1.13
2022-10-25T02:55:25.242Z,1.00
2022-10-25T02:57:53.761Z,1.00
2022-10-25T03:00:22.337Z,1.00
2022-10-25T03:02:50.866Z,1.33
2022-10-25T03:05:19.454Z,1.20
2022-10-25T03:07:47.978Z,1.00
2022-10-25T03:10:18.015Z,1.10
2022-10-25T03:12:46.690Z,1.13
2022-10-25T03:15:15.265Z,1.58
2022-10-25T03:17:43.978Z,1.30
2022-10-25T03:20:12.746Z,1.13
2022-10-25T03:22:41.279Z,1.52
2022-10-25T03:25:10.270Z,1.35
2022-10-25T03:27:40.126Z,1.10
2022-10-25T03:30:09.571Z,1.10
2022-10-25T03:32:38.498Z,1.45
2022-10-25T03:35:08.677Z,1.23
2022-10-25T03:37:37.231Z,1.30
2022-10-25T03:40:06.790Z,1.00
2022-10-25T03:42:35.321Z,1.13
2022-10-25T03:45:06.096Z,1.15
2022-10-25T03:47:34.743Z,1.20
2022-10-25T03:50:03.257Z,1.10
2022-10-25T03:52:31.775Z,1.00
2022-10-25T03:55:00.237Z,1.25
2022-10-25T03:57:28.929Z,1.20
2022-10-25T03:59:57.782Z,1.10
2022-10-25T04:02:28.012Z,1.00
2022-10-25T04:04:56.519Z,1.50
2022-10-25T04:07:25.035Z,1.67
2022-10-25T04:09:53.484Z,1.27
2022-10-25T04:12:21.975Z,1.23
2022-10-25T04:14:50.431Z,1.00
2022-10-25T04:17:18.916Z,0.95
2022-10-25T04:19:48.801Z,1.45
2022-10-25T04:22:17.428Z,1.33
2022-10-25T04:24:45.998Z,1.25
2022-10-25T04:27:14.699Z,1.48
2022-10-25T04:29:43.167Z,1.00
2022-10-25T04:32:11.886Z,1.10
2022-10-25T04:34:40.452Z,1.13
2022-10-25T04:37:13.092Z,1.30
2022-10-25T04:39:41.604Z,1.42
2022-10-25T04:44:43.521Z,1.30
2022-10-25T04:47:12.159Z,1.40
2022-10-25T04:49:40.934Z,1.15
2022-10-25T04:52:10.822Z,1.20
2022-10-25T04:54:39.281Z,1.20
2022-10-25T04:57:08.003Z,1.27
2022-10-25T04:59:36.516Z,1.02
2022-10-25T05:02:05.473Z,1.30
2022-10-25T05:04:34.000Z,1.58
2022-10-25T05:07:02.416Z,1.65
2022-10-25T05:09:32.262Z,1.30
2022-10-25T05:12:00.800Z,1.40
2022-10-25T05:14:29.293Z,1.65
2022-10-25T05:16:57.836Z,1.83
2022-10-25T05:19:26.362Z,2.65
2022-10-25T05:21:55.011Z,2.03
2022-10-25T05:24:24.218Z,1.60
2022-10-25T05:26:54.149Z,1.27
2022-10-25T05:29:22.654Z,1.48
2022-10-25T05:31:51.178Z,1.40
2022-10-25T05:34:19.812Z,1.45
2022-10-25T05:36:48.480Z,1.25
2022-10-25T05:39:16.976Z,1.58
2022-10-25T05:41:45.463Z,1.58
2022-10-25T05:44:16.589Z,1.60
2022-10-25T05:46:45.900Z,1.58
2022-10-25T05:49:14.822Z,1.80
2022-10-25T05:51:43.465Z,1.50
2022-10-25T05:54:14.383Z,1.70
2022-10-25T05:56:43.659Z,1.38
2022-10-25T05:59:14.249Z,1.73
2022-10-25T06:01:46.228Z,1.67
2022-10-25T06:04:16.108Z,1.35
2022-10-25T06:06:46.227Z,1.67
2022-10-25T06:09:15.002Z,2.08
2022-10-25T06:11:43.622Z,1.65
2022-10-25T06:14:12.488Z,1.27
2022-10-25T06:16:41.366Z,1.70
2022-10-25T06:19:11.360Z,1.42
2022-10-25T06:21:39.857Z,1.52
2022-10-25T06:24:09.731Z,1.58
2022-10-25T06:26:38.310Z,1.40
2022-10-25T06:29:06.987Z,1.77
2022-10-25T06:31:35.579Z,1.35
2022-10-25T06:34:04.828Z,1.58
2022-10-25T06:36:34.687Z,1.60
2022-10-25T06:39:05.823Z,1.40
2022-10-25T06:41:36.877Z,1.40
2022-10-25T06:44:07.358Z,1.30
2022-10-25T06:47:04.277Z,1.20
2022-10-25T06:49:27.335Z,1.65
2022-10-25T06:51:57.309Z,1.50
2022-10-25T06:54:26.739Z,1.55
2022-10-25T06:56:55.362Z,2.10
2022-10-25T06:59:23.962Z,1.48
2022-10-25T07:01:52.584Z,1.70
2022-10-25T07:04:21.363Z,1.40
2022-10-25T07:06:52.823Z,1.52
2022-10-25T07:09:26.626Z,1.65
2022-10-25T07:11:55.148Z,1.45
2022-10-25T07:14:23.645Z,1.80
2022-10-25T07:16:52.166Z,1.98
2022-10-25T07:19:20.653Z,1.65
2022-10-25T07:21:49.186Z,1.50
2022-10-25T07:24:17.738Z,1.38
2022-10-25T07:26:47.722Z,1.40
2022-10-25T07:29:16.197Z,1.77
2022-10-25T07:31:45.269Z,1.80
2022-10-25T07:34:15.361Z,1.75
2022-10-25T07:36:44.097Z,1.70
2022-10-25T07:39:12.568Z,1.35
2022-10-25T07:41:41.094Z,1.85
2022-10-25T07:44:15.955Z,1.45
2022-10-25T07:46:45.292Z,1.40
2022-10-25T07:49:14.048Z,1.50
2022-10-25T07:51:42.913Z,1.38
2022-10-25T07:54:11.490Z,1.60
2022-10-25T07:56:40.164Z,1.65
2022-10-25T07:59:10.111Z,1.75
2022-10-25T08:01:38.720Z,1.73
2022-10-25T08:04:07.358Z,1.50
2022-10-25T08:06:36.367Z,1.92
2022-10-25T08:09:14.422Z,1.70
2022-10-25T08:11:50.560Z,1.77
2022-10-25T08:14:20.467Z,1.40
2022-10-25T08:16:49.419Z,1.60
2022-10-25T08:19:17.993Z,1.30
2022-10-25T08:21:47.199Z,1.58
2022-10-25T08:24:15.726Z,1.40
2022-10-25T08:26:44.358Z,1.30
2022-10-25T08:29:12.958Z,1.20
2022-10-25T08:31:42.847Z,1.60
2022-10-25T08:36:44.999Z,1.40
2022-10-25T08:39:13.471Z,1.50
2022-10-25T08:41:48.138Z,1.42
2022-10-25T08:44:22.879Z,1.55
2022-10-25T08:47:00.331Z,1.70
2022-10-25T08:49:34.369Z,1.50
2022-10-25T08:52:04.171Z,1.48
2022-10-25T08:54:38.517Z,1.00
2022-10-25T08:57:16.433Z,1.60
2022-10-25T08:59:49.241Z,1.45
2022-10-25T09:02:25.416Z,1.35
2022-10-25T09:04:55.075Z,1.50
2022-10-25T09:07:56.849Z,1.55
2022-10-25T09:10:39.869Z,1.67
2022-10-25T09:13:16.684Z,1.20
2022-10-25T09:15:55.603Z,1.40
2022-10-25T09:18:35.407Z,1.30
2022-10-25T09:21:14.776Z,1.67
2022-10-25T09:23:58.287Z,1.10
2022-10-25T09:26:39.064Z,1.05
2022-10-25T09:29:14.954Z,1.08
2022-10-25T09:31:49.110Z,1.08
2022-10-25T09:34:21.356Z,1.30
2022-10-25T09:36:53.142Z,1.42
2022-10-25T09:39:26.526Z,1.30
2022-10-25T09:41:57.105Z,1.48
2022-10-25T09:44:35.164Z,1.38
2022-10-25T09:47:14.074Z,1.25
2022-10-25T09:49:52.946Z,1.10
2022-10-25T09:52:29.119Z,0.70
2022-10-25T09:55:07.682Z,0.82
2022-10-25T09:57:36.309Z,0.98
2022-10-25T10:00:06.493Z,1.10
2022-10-25T10:02:41.355Z,1.10
2022-10-25T10:05:16.385Z,1.05
2022-10-25T10:07:47.246Z,1.30
2022-10-25T10:10:19.861Z,0.90
2022-10-25T10:12:53.377Z,1.08
2022-10-25T10:15:25.898Z,1.00
2022-10-25T10:18:22.322Z,0.82
2022-10-25T10:21:04.076Z,0.80
2022-10-25T10:23:36.459Z,0.80
2022-10-25T10:26:12.634Z,0.80
2022-10-25T10:28:46.961Z,0.75
2022-10-25T10:31:16.167Z,0.68
2022-10-25T10:33:49.437Z,0.90
2022-10-25T10:36:28.310Z,0.80
2022-10-25T10:39:14.616Z,0.80
2022-10-25T10:42:00.976Z,0.80
2022-10-25T10:44:30.098Z,1.27
2022-10-25T10:46:59.033Z,1.00
2022-10-25T10:49:35.647Z,0.70
2022-10-25T10:52:06.555Z,0.80
2022-10-25T10:54:37.664Z,0.90
2022-10-25T10:57:08.164Z,0.80
2022-10-25T10:59:40.785Z,0.90
2022-10-25T11:02:29.845Z,1.88
2022-10-25T11:04:58.925Z,1.08
2022-10-25T11:07:31.826Z,1.02
2022-10-25T11:10:32.408Z,0.93
2022-10-25T11:13:15.517Z,1.05
2022-10-25T11:16:13.190Z,0.70
2022-10-25T11:18:51.781Z,1.02
2022-10-25T11:21:37.626Z,0.70
2022-10-25T11:24:18.903Z,0.95
2022-10-25T11:26:54.237Z,0.80
2022-10-25T11:29:38.857Z,0.80
2022-10-25T11:32:23.780Z,1.08
2022-10-25T11:35:02.925Z,0.85
2022-10-25T11:37:37.948Z,1.00
2022-10-25T11:40:14.382Z,1.00
2022-10-25T11:42:58.522Z,0.77
2022-10-25T11:45:41.266Z,1.00
2022-10-25T11:48:36.906Z,0.90
2022-10-25T11:51:15.168Z,1.40
2022-10-25T11:54:13.126Z,1.33
2022-10-25T11:56:55.639Z,0.98
2022-10-25T11:59:34.230Z,0.95
2022-10-25T12:02:18.944Z,0.90
2022-10-25T12:05:01.878Z,1.23
2022-10-25T12:07:40.310Z,0.95
2022-10-25T12:10:18.166Z,0.70
2022-10-25T12:12:52.626Z,1.00
2022-10-25T12:15:24.211Z,0.77
2022-10-25T12:17:53.549Z,0.90
2022-10-25T12:20:26.845Z,0.70
2022-10-25T12:22:58.678Z,0.73
2022-10-25T12:25:32.401Z,0.90
2022-10-25T12:28:12.364Z,0.75
2022-10-25T12:30:42.162Z,1.00
2022-10-25T12:33:19.915Z,0.90
2022-10-25T12:35:52.003Z,0.90
2022-10-25T12:38:28.538Z,0.98
2022-10-25T12:41:03.891Z,0.90
2022-10-25T12:43:39.575Z,0.82
2022-10-25T12:46:25.319Z,0.80
2022-10-25T12:49:23.249Z,0.90
2022-10-25T12:52:05.461Z,1.02
2022-10-25T12:54:54.062Z,1.02
2022-10-25T12:57:32.559Z,0.82
2022-10-25T13:00:11.268Z,0.60
2022-10-25T13:03:28.690Z,0.80
2022-10-25T13:06:18.412Z,1.10
2022-10-25T13:08:47.367Z,0.70
2022-10-25T13:11:16.093Z,0.80
2022-10-25T13:13:50.704Z,0.82
2022-10-25T13:16:29.860Z,0.80
2022-10-25T13:22:35.777Z,0.95
2022-10-25T13:25:16.906Z,0.88
2022-10-25T13:28:20.352Z,0.63
2022-10-25T13:30:48.969Z,1.20
2022-10-25T13:33:33.670Z,0.55
2022-10-25T13:36:04.798Z,0.70
2022-10-25T13:38:39.375Z,0.63
2022-10-25T13:41:19.665Z,0.80
2022-10-25T13:44:01.879Z,0.77
2022-10-25T13:46:37.439Z,0.77
2022-10-25T13:49:31.624Z,0.73
2022-10-25T13:52:01.781Z,0.70
2022-10-25T13:54:44.361Z,0.88
2022-10-25T13:57:51.164Z,0.77
2022-10-25T14:00:39.001Z,0.80
2022-10-25T14:03:24.012Z,0.70
2022-10-25T14:06:25.232Z,0.70
2022-10-25T14:09:12.426Z,1.00
2022-10-25T14:11:48.408Z,0.85
2022-10-25T14:14:27.397Z,0.70
2022-10-25T14:17:05.463Z,0.73
2022-10-25T14:19:38.695Z,1.10
2022-10-25T14:22:16.201Z,0.65
2022-10-25T14:24:49.801Z,0.80
2022-10-25T14:27:30.220Z,0.93
2022-10-25T14:30:29.327Z,0.70
2022-10-25T14:32:59.461Z,0.50
2022-10-25T14:35:32.598Z,0.77
2022-10-25T14:38:03.497Z,0.80
2022-10-25T14:40:33.099Z,0.50
2022-10-25T14:43:23.778Z,0.90
2022-10-25T14:46:11.233Z,0.75
2022-10-25T14:48:40.275Z,0.80
2022-10-25T14:51:13.512Z,0.82
2022-10-25T14:53:51.728Z,0.70
2022-10-25T14:56:28.122Z,0.93
2022-10-25T14:58:57.552Z,0.60
2022-10-25T15:01:26.860Z,0.70
2022-10-25T15:03:58.549Z,0.90
2022-10-25T15:06:29.579Z,0.60
2022-10-25T15:09:37.018Z,0.60
2022-10-25T15:12:16.504Z,0.52
2022-10-25T15:14:47.430Z,0.68
2022-10-25T15:17:25.768Z,0.93
2022-10-25T15:20:06.336Z,1.40
2022-10-25T15:22:43.509Z,2.83
2022-10-25T15:25:28.709Z,2.22
2022-10-25T15:27:57.349Z,2.20
2022-10-25T15:30:35.913Z,2.10
2022-10-25T15:33:06.462Z,1.67
2022-10-25T15:35:44.018Z,1.33
2022-10-25T15:38:12.731Z,1.73
2022-10-25T15:40:42.986Z,1.60
2022-10-25T15:43:11.607Z,1.70
2022-10-25T15:45:40.413Z,1.30
2022-10-25T15:48:15.144Z,1.20
2022-10-25T15:50:47.975Z,1.50
2022-10-25T15:53:16.572Z,1.00
2022-10-25T15:55:46.536Z,2.17
2022-10-25T15:58:15.109Z,1.40
2022-10-25T16:00:44.591Z,1.25
2022-10-25T16:03:21.035Z,1.40
2022-10-25T16:05:50.725Z,1.75
2022-10-25T16:08:19.761Z,1.50
2022-10-25T16:10:49.682Z,1.60
2022-10-25T16:13:25.273Z,1.73
2022-10-25T16:15:54.165Z,1.63
2022-10-25T16:18:23.007Z,1.52
2022-10-25T16:20:51.852Z,1.33
2022-10-25T16:23:23.803Z,1.33
2022-10-25T16:25:54.896Z,1.35
2022-10-25T16:28:23.394Z,1.42
2022-10-25T16:30:51.920Z,1.45
2022-10-25T16:33:20.409Z,1.63
2022-10-25T16:35:48.925Z,1.85
2022-10-25T16:38:17.561Z,1.92
2022-10-25T16:40:46.030Z,1.50
2022-10-25T16:43:16.313Z,1.48
2022-10-25T16:45:44.900Z,1.65
2022-10-25T16:48:13.386Z,2.63
2022-10-25T16:50:41.948Z,1.83
2022-10-25T16:53:13.518Z,1.85
2022-10-25T16:55:42.029Z,1.40
2022-10-25T16:58:11.293Z,2.55
2022-10-25T17:00:41.245Z,1.65
2022-10-25T17:03:10.236Z,1.67
2022-10-25T17:05:39.769Z,1.30
2022-10-25T17:08:08.472Z,1.30
2022-10-25T17:10:42.380Z,1.52
2022-10-25T17:13:15.554Z,1.60
2022-10-25T17:15:45.400Z,1.60
2022-10-25T17:18:18.349Z,1.60
2022-10-25T17:20:46.901Z,1.35
2022-10-25T17:23:15.400Z,1.58
2022-10-25T17:25:43.930Z,1.52
2022-10-25T17:28:12.429Z,1.40
2022-10-25T17:30:43.014Z,1.30
2022-10-25T17:33:12.901Z,1.60
2022-10-25T17:35:42.368Z,1.27
2022-10-25T17:38:10.925Z,1.80
2022-10-25T17:40:39.877Z,1.88
2022-10-25T17:43:08.660Z,1.65
2022-10-25T17:45:37.152Z,1.48
2022-10-25T17:48:06.303Z,1.30
2022-10-25T17:50:40.770Z,1.30
2022-10-25T17:53:10.489Z,2.08
2022-10-25T17:55:41.162Z,1.70
2022-10-25T17:58:09.811Z,1.67
2022-10-25T18:00:38.297Z,1.48
2022-10-25T18:03:06.812Z,2.20
2022-10-25T18:05:39.526Z,1.63
2022-10-25T18:08:08.563Z,1.50
2022-10-25T18:10:37.229Z,1.75
2022-10-25T18:13:05.809Z,1.85
2022-10-25T18:15:35.711Z,1.80
2022-10-25T18:18:04.372Z,1.75
2022-10-25T18:20:32.920Z,1.77
2022-10-25T18:23:02.744Z,1.88
2022-10-25T18:25:31.238Z,1.65
2022-10-25T18:27:59.939Z,2.70
2022-10-25T18:30:28.516Z,2.15
2022-10-25T18:32:57.034Z,2.25
2022-10-25T18:35:25.512Z,2.17
2022-10-25T18:37:54.166Z,2.20
2022-10-25T18:40:24.278Z,2.20
2022-10-25T18:42:52.815Z,2.20
2022-10-25T18:45:21.350Z,1.92
2022-10-25T18:47:53.203Z,1.92
2022-10-25T18:50:21.761Z,2.00
2022-10-25T18:52:50.225Z,2.17
2022-10-25T18:57:48.925Z,1.88
2022-10-25T19:00:18.533Z,2.03
2022-10-25T19:02:52.472Z,1.77
2022-10-25T19:05:21.377Z,1.90
2022-10-25T19:07:50.248Z,1.58
2022-10-25T19:10:19.334Z,2.25
2022-10-25T19:12:49.185Z,2.00
2022-10-25T19:15:17.853Z,1.83
2022-10-25T19:17:50.923Z,2.42
2022-10-25T19:20:19.802Z,1.80
2022-10-25T19:22:48.354Z,3.17
2022-10-25T19:25:19.145Z,2.30
2022-10-25T19:27:52.880Z,2.65
2022-10-25T19:30:21.669Z,2.17
2022-10-25T19:32:50.390Z,2.47
2022-10-25T19:35:19.205Z,2.40
2022-10-25T19:37:47.943Z,1.92
2022-10-25T19:40:16.862Z,2.05
2022-10-25T19:42:45.325Z,2.00
2022-10-25T19:45:15.321Z,1.80
2022-10-25T19:47:44.750Z,2.03
2022-10-25T19:50:13.419Z,1.73
2022-10-25T19:52:42.846Z,1.80
2022-10-25T19:55:11.353Z,1.73
2022-10-25T19:57:39.864Z,1.83
2022-10-25T20:00:11.333Z,1.77
2022-10-25T20:02:43.487Z,2.10
2022-10-25T20:07:45.870Z,2.13
2022-10-25T20:10:14.694Z,2.47
2022-10-25T20:12:43.796Z,2.10
2022-10-25T20:15:14.454Z,2.05
2022-10-25T20:17:44.491Z,2.88
2022-10-25T20:20:13.220Z,2.63
2022-10-25T20:22:41.698Z,2.72
2022-10-25T20:25:10.411Z,2.85
2022-10-25T20:27:38.942Z,2.58
2022-10-25T20:30:08.063Z,2.58
2022-10-25T20:32:36.509Z,2.65
2022-10-25T20:35:07.263Z,2.22
2022-10-25T20:37:35.835Z,2.60
2022-10-25T20:40:05.691Z,2.60
2022-10-25T20:42:34.143Z,2.13
2022-10-25T20:47:32.149Z,2.78
2022-10-25T20:50:00.636Z,2.70
2022-10-25T20:52:30.684Z,2.67
2022-10-25T20:54:59.233Z,2.17
2022-10-25T20:57:27.869Z,2.60
2022-10-25T20:59:56.343Z,2.85
2022-10-25T21:02:24.867Z,2.60
2022-10-25T21:04:54.091Z,2.08
2022-10-25T21:07:22.690Z,2.08
2022-10-25T21:09:52.542Z,2.15
2022-10-25T21:12:21.060Z,2.08
2022-10-25T21:14:49.718Z,2.17
2022-10-25T21:17:18.510Z,2.03
2022-10-25T21:19:47.032Z,2.00
2022-10-25T21:22:15.562Z,2.15
2022-10-25T21:24:44.047Z,2.20
2022-10-25T21:27:13.892Z,2.30
2022-10-25T21:29:42.374Z,2.58
2022-10-25T21:32:10.934Z,2.40
2022-10-25T21:34:39.477Z,2.55
2022-10-25T21:37:07.989Z,2.50
2022-10-25T21:39:36.749Z,2.55
2022-10-25T21:42:05.670Z,2.25
2022-10-25T21:44:35.565Z,2.45
2022-10-25T21:47:04.053Z,2.42
2022-10-25T21:49:32.818Z,2.40
2022-10-25T21:52:01.485Z,2.83
2022-10-25T21:54:30.072Z,2.25
2022-10-25T21:56:58.637Z,2.58
2022-10-25T21:59:27.581Z,2.88
2022-10-25T22:01:57.633Z,2.50
2022-10-25T22:04:27.789Z,2.53
2022-10-25T22:06:56.304Z,2.58
2022-10-25T22:09:25.006Z,2.30
2022-10-25T22:11:53.700Z,2.15
2022-10-25T22:14:22.463Z,1.88
2022-10-25T22:16:51.155Z,2.13
2022-10-25T22:21:52.926Z,2.60
2022-10-25T22:24:21.420Z,2.72
2022-10-25T22:26:52.001Z,2.70
2022-10-25T22:29:20.609Z,2.75
2022-10-25T22:31:49.108Z,2.28
2022-10-25T22:34:17.688Z,3.13
2022-10-25T22:36:47.540Z,2.83
2022-10-25T22:39:16.567Z,2.45
2022-10-25T22:41:46.061Z,2.70
2022-10-25T22:44:14.682Z,2.70
2022-10-25T22:46:43.248Z,2.85
2022-10-25T22:49:11.719Z,2.42
2022-10-25T22:51:40.403Z,3.35
2022-10-25T22:54:10.480Z,2.65
2022-10-25T22:56:38.995Z,2.85
2022-10-25T22:59:07.789Z,2.53
2022-10-25T23:01:38.117Z,2.03
2022-10-25T23:04:08.946Z,3.85
2022-10-25T23:06:39.847Z,2.00
2022-10-25T23:09:10.963Z,1.83
2022-10-25T23:11:41.038Z,2.30
2022-10-25T23:14:14.715Z,1.92
2022-10-25T23:16:46.333Z,1.95
2022-10-25T23:19:15.365Z,1.88
2022-10-25T23:21:43.907Z,2.33
2022-10-25T23:24:13.765Z,1.83
2022-10-25T23:26:42.368Z,1.75
2022-10-25T23:29:12.804Z,2.13
2022-10-25T23:31:41.360Z,2.00
2022-10-25T23:34:10.598Z,2.08
2022-10-25T23:36:39.171Z,2.28
2022-10-25T23:39:08.699Z,2.03
2022-10-25T23:41:39.131Z,1.90
2022-10-25T23:44:07.675Z,1.83
2022-10-25T23:46:36.189Z,1.85
2022-10-25T23:49:04.775Z,1.80
2022-10-25T23:51:33.394Z,1.70
2022-10-25T23:54:01.895Z,2.30
2022-10-25T23:56:30.447Z,2.30
2022-10-25T23:59:00.422Z,1.77
